sensor_id;sensor_type;location;lat;lon;timestamp;P1;durP1;ratioP1;P2;durP2;ratioP2
55827;SDS011;41758;51.992;5.890;2024-01-06T00:01:00;30.75;;;21.35;;
55827;SDS011;41758;51.992;5.890;2024-01-06T00:03:26;30.60;;;21.60;;
55827;SDS011;41758;51.992;5.890;2024-01-06T00:05:51;27.80;;;20.00;;
55827;SDS011;41758;51.992;5.890;2024-01-06T00:08:17;28.67;;;19.77;;
55827;SDS011;41758;51.992;5.890;2024-01-06T00:10:43;28.65;;;19.98;;
55827;SDS011;41758;51.992;5.890;2024-01-06T00:13:09;27.55;;;19.10;;
55827;SDS011;41758;51.992;5.890;2024-01-06T00:15:35;27.52;;;19.33;;
55827;SDS011;41758;51.992;5.890;2024-01-06T00:18:01;26.75;;;19.00;;
55827;SDS011;41758;51.992;5.890;2024-01-06T00:20:27;28.98;;;20.08;;
55827;SDS011;41758;51.992;5.890;2024-01-06T00:22:53;28.83;;;20.17;;
55827;SDS011;41758;51.992;5.890;2024-01-06T00:25:18;27.70;;;19.58;;
55827;SDS011;41758;51.992;5.890;2024-01-06T00:27:44;30.88;;;20.65;;
55827;SDS011;41758;51.992;5.890;2024-01-06T00:30:10;30.08;;;20.63;;
55827;SDS011;41758;51.992;5.890;2024-01-06T00:32:35;27.00;;;18.52;;
55827;SDS011;41758;51.992;5.890;2024-01-06T00:35:01;27.75;;;19.23;;
55827;SDS011;41758;51.992;5.890;2024-01-06T00:37:27;25.52;;;18.85;;
55827;SDS011;41758;51.992;5.890;2024-01-06T00:39:53;29.48;;;18.88;;
55827;SDS011;41758;51.992;5.890;2024-01-06T00:42:19;26.27;;;18.38;;
55827;SDS011;41758;51.992;5.890;2024-01-06T00:44:44;25.10;;;18.05;;
55827;SDS011;41758;51.992;5.890;2024-01-06T00:47:10;27.17;;;18.85;;
55827;SDS011;41758;51.992;5.890;2024-01-06T00:49:36;27.27;;;18.73;;
55827;SDS011;41758;51.992;5.890;2024-01-06T00:52:02;28.27;;;18.75;;
55827;SDS011;41758;51.992;5.890;2024-01-06T00:54:28;26.45;;;18.23;;
55827;SDS011;41758;51.992;5.890;2024-01-06T00:56:54;26.95;;;17.75;;
55827;SDS011;41758;51.992;5.890;2024-01-06T00:59:19;30.27;;;19.60;;
55827;SDS011;41758;51.992;5.890;2024-01-06T01:01:45;27.05;;;18.35;;
55827;SDS011;41758;51.992;5.890;2024-01-06T01:04:13;30.58;;;18.75;;
55827;SDS011;41758;51.992;5.890;2024-01-06T01:06:39;26.90;;;17.60;;
55827;SDS011;41758;51.992;5.890;2024-01-06T01:09:04;26.13;;;16.75;;
55827;SDS011;41758;51.992;5.890;2024-01-06T01:11:30;28.13;;;17.02;;
55827;SDS011;41758;51.992;5.890;2024-01-06T01:13:56;30.00;;;18.25;;
55827;SDS011;41758;51.992;5.890;2024-01-06T01:16:22;27.90;;;18.15;;
55827;SDS011;41758;51.992;5.890;2024-01-06T01:18:47;30.48;;;18.55;;
55827;SDS011;41758;51.992;5.890;2024-01-06T01:21:14;28.95;;;19.70;;
55827;SDS011;41758;51.992;5.890;2024-01-06T01:23:40;29.08;;;19.17;;
55827;SDS011;41758;51.992;5.890;2024-01-06T01:26:05;30.17;;;19.83;;
55827;SDS011;41758;51.992;5.890;2024-01-06T01:28:31;29.08;;;18.35;;
55827;SDS011;41758;51.992;5.890;2024-01-06T01:30:57;26.02;;;18.50;;
55827;SDS011;41758;51.992;5.890;2024-01-06T01:33:22;27.77;;;19.05;;
55827;SDS011;41758;51.992;5.890;2024-01-06T01:35:49;26.58;;;18.33;;
55827;SDS011;41758;51.992;5.890;2024-01-06T01:38:14;30.80;;;19.08;;
55827;SDS011;41758;51.992;5.890;2024-01-06T01:40:40;29.10;;;19.08;;
55827;SDS011;41758;51.992;5.890;2024-01-06T01:43:15;29.40;;;18.83;;
55827;SDS011;41758;51.992;5.890;2024-01-06T01:45:44;27.33;;;19.13;;
55827;SDS011;41758;51.992;5.890;2024-01-06T01:48:13;27.67;;;19.02;;
55827;SDS011;41758;51.992;5.890;2024-01-06T01:50:39;28.85;;;18.60;;
55827;SDS011;41758;51.992;5.890;2024-01-06T01:53:05;28.20;;;19.38;;
55827;SDS011;41758;51.992;5.890;2024-01-06T01:55:31;27.13;;;18.55;;
55827;SDS011;41758;51.992;5.890;2024-01-06T01:57:57;26.58;;;18.77;;
55827;SDS011;41758;51.992;5.890;2024-01-06T02:00:22;27.67;;;19.30;;
55827;SDS011;41758;51.992;5.890;2024-01-06T02:02:48;26.88;;;18.98;;
55827;SDS011;41758;51.992;5.890;2024-01-06T02:05:14;27.00;;;19.05;;
55827;SDS011;41758;51.992;5.890;2024-01-06T02:07:39;28.48;;;19.20;;
55827;SDS011;41758;51.992;5.890;2024-01-06T02:10:05;31.83;;;21.02;;
55827;SDS011;41758;51.992;5.890;2024-01-06T02:12:32;30.80;;;19.85;;
55827;SDS011;41758;51.992;5.890;2024-01-06T02:14:57;30.98;;;21.13;;
55827;SDS011;41758;51.992;5.890;2024-01-06T02:17:23;34.25;;;23.38;;
55827;SDS011;41758;51.992;5.890;2024-01-06T02:19:52;31.75;;;21.35;;
55827;SDS011;41758;51.992;5.890;2024-01-06T02:22:18;35.85;;;22.27;;
55827;SDS011;41758;51.992;5.890;2024-01-06T02:24:44;32.33;;;21.80;;
55827;SDS011;41758;51.992;5.890;2024-01-06T02:27:09;34.60;;;22.58;;
55827;SDS011;41758;51.992;5.890;2024-01-06T02:29:35;34.88;;;23.85;;
55827;SDS011;41758;51.992;5.890;2024-01-06T02:32:01;36.42;;;22.85;;
55827;SDS011;41758;51.992;5.890;2024-01-06T02:34:26;37.05;;;23.02;;
55827;SDS011;41758;51.992;5.890;2024-01-06T02:36:52;37.75;;;23.48;;
55827;SDS011;41758;51.992;5.890;2024-01-06T02:39:17;36.00;;;23.15;;
55827;SDS011;41758;51.992;5.890;2024-01-06T02:41:43;36.90;;;23.95;;
55827;SDS011;41758;51.992;5.890;2024-01-06T02:44:09;38.30;;;24.10;;
55827;SDS011;41758;51.992;5.890;2024-01-06T02:46:34;36.80;;;23.90;;
55827;SDS011;41758;51.992;5.890;2024-01-06T02:49:00;37.95;;;23.92;;
55827;SDS011;41758;51.992;5.890;2024-01-06T02:51:26;35.83;;;23.67;;
55827;SDS011;41758;51.992;5.890;2024-01-06T02:53:51;38.03;;;24.63;;
55827;SDS011;41758;51.992;5.890;2024-01-06T02:56:17;41.05;;;25.88;;
55827;SDS011;41758;51.992;5.890;2024-01-06T02:58:42;40.85;;;25.58;;
55827;SDS011;41758;51.992;5.890;2024-01-06T03:01:08;38.22;;;24.00;;
55827;SDS011;41758;51.992;5.890;2024-01-06T03:03:36;36.30;;;24.65;;
55827;SDS011;41758;51.992;5.890;2024-01-06T03:06:01;38.30;;;24.27;;
55827;SDS011;41758;51.992;5.890;2024-01-06T03:08:27;35.38;;;23.65;;
55827;SDS011;41758;51.992;5.890;2024-01-06T03:10:53;37.50;;;24.70;;
55827;SDS011;41758;51.992;5.890;2024-01-06T03:13:18;41.58;;;24.85;;
55827;SDS011;41758;51.992;5.890;2024-01-06T03:15:44;40.03;;;25.42;;
55827;SDS011;41758;51.992;5.890;2024-01-06T03:18:10;39.30;;;25.42;;
55827;SDS011;41758;51.992;5.890;2024-01-06T03:20:36;38.03;;;25.67;;
55827;SDS011;41758;51.992;5.890;2024-01-06T03:23:02;39.25;;;24.67;;
55827;SDS011;41758;51.992;5.890;2024-01-06T03:25:27;43.75;;;26.48;;
55827;SDS011;41758;51.992;5.890;2024-01-06T03:27:53;40.95;;;26.88;;
55827;SDS011;41758;51.992;5.890;2024-01-06T03:30:19;37.25;;;25.48;;
55827;SDS011;41758;51.992;5.890;2024-01-06T03:32:44;36.78;;;24.77;;
55827;SDS011;41758;51.992;5.890;2024-01-06T03:35:10;39.17;;;24.35;;
55827;SDS011;41758;51.992;5.890;2024-01-06T03:37:36;41.85;;;25.08;;
55827;SDS011;41758;51.992;5.890;2024-01-06T03:40:02;41.08;;;25.00;;
55827;SDS011;41758;51.992;5.890;2024-01-06T03:42:28;38.03;;;24.05;;
55827;SDS011;41758;51.992;5.890;2024-01-06T03:44:53;46.42;;;26.27;;
55827;SDS011;41758;51.992;5.890;2024-01-06T03:47:19;38.83;;;25.25;;
55827;SDS011;41758;51.992;5.890;2024-01-06T03:49:45;38.15;;;24.45;;
55827;SDS011;41758;51.992;5.890;2024-01-06T03:52:10;39.97;;;26.08;;
55827;SDS011;41758;51.992;5.890;2024-01-06T03:54:36;40.83;;;23.65;;
55827;SDS011;41758;51.992;5.890;2024-01-06T03:57:01;39.95;;;22.17;;
55827;SDS011;41758;51.992;5.890;2024-01-06T03:59:27;31.38;;;20.60;;
55827;SDS011;41758;51.992;5.890;2024-01-06T04:01:53;37.03;;;22.42;;
55827;SDS011;41758;51.992;5.890;2024-01-06T04:04:18;37.72;;;21.00;;
55827;SDS011;41758;51.992;5.890;2024-01-06T04:06:44;35.47;;;22.83;;
55827;SDS011;41758;51.992;5.890;2024-01-06T04:09:10;45.17;;;27.38;;
55827;SDS011;41758;51.992;5.890;2024-01-06T04:11:36;45.20;;;27.67;;
55827;SDS011;41758;51.992;5.890;2024-01-06T04:14:01;39.67;;;27.52;;
55827;SDS011;41758;51.992;5.890;2024-01-06T04:16:27;43.88;;;28.00;;
55827;SDS011;41758;51.992;5.890;2024-01-06T04:18:53;45.60;;;27.63;;
55827;SDS011;41758;51.992;5.890;2024-01-06T04:21:18;44.47;;;28.92;;
55827;SDS011;41758;51.992;5.890;2024-01-06T04:23:44;46.53;;;30.23;;
55827;SDS011;41758;51.992;5.890;2024-01-06T04:26:09;50.65;;;32.40;;
55827;SDS011;41758;51.992;5.890;2024-01-06T04:28:35;49.90;;;31.42;;
55827;SDS011;41758;51.992;5.890;2024-01-06T04:31:01;47.22;;;30.80;;
55827;SDS011;41758;51.992;5.890;2024-01-06T04:33:27;49.33;;;30.80;;
55827;SDS011;41758;51.992;5.890;2024-01-06T04:35:52;51.95;;;30.65;;
55827;SDS011;41758;51.992;5.890;2024-01-06T04:38:18;46.80;;;27.75;;
55827;SDS011;41758;51.992;5.890;2024-01-06T04:40:44;43.22;;;26.92;;
55827;SDS011;41758;51.992;5.890;2024-01-06T04:43:09;45.38;;;26.75;;
55827;SDS011;41758;51.992;5.890;2024-01-06T04:45:35;42.08;;;27.25;;
55827;SDS011;41758;51.992;5.890;2024-01-06T04:48:02;55.30;;;30.98;;
55827;SDS011;41758;51.992;5.890;2024-01-06T04:50:29;51.63;;;30.77;;
55827;SDS011;41758;51.992;5.890;2024-01-06T04:52:54;44.92;;;29.42;;
55827;SDS011;41758;51.992;5.890;2024-01-06T04:55:20;51.95;;;29.25;;
55827;SDS011;41758;51.992;5.890;2024-01-06T04:57:46;41.78;;;27.95;;
55827;SDS011;41758;51.992;5.890;2024-01-06T05:00:13;45.78;;;27.40;;
55827;SDS011;41758;51.992;5.890;2024-01-06T05:02:38;44.38;;;26.88;;
55827;SDS011;41758;51.992;5.890;2024-01-06T05:05:04;44.63;;;26.33;;
55827;SDS011;41758;51.992;5.890;2024-01-06T05:07:30;42.30;;;24.17;;
55827;SDS011;41758;51.992;5.890;2024-01-06T05:09:55;37.25;;;22.80;;
55827;SDS011;41758;51.992;5.890;2024-01-06T05:12:21;35.88;;;21.17;;
55827;SDS011;41758;51.992;5.890;2024-01-06T05:14:47;32.28;;;19.40;;
55827;SDS011;41758;51.992;5.890;2024-01-06T05:17:12;34.45;;;19.92;;
55827;SDS011;41758;51.992;5.890;2024-01-06T05:19:38;31.92;;;18.27;;
55827;SDS011;41758;51.992;5.890;2024-01-06T05:22:03;34.60;;;20.50;;
55827;SDS011;41758;51.992;5.890;2024-01-06T05:24:29;35.33;;;21.50;;
55827;SDS011;41758;51.992;5.890;2024-01-06T05:26:55;32.83;;;22.67;;
55827;SDS011;41758;51.992;5.890;2024-01-06T05:29:20;34.78;;;21.38;;
55827;SDS011;41758;51.992;5.890;2024-01-06T05:31:46;33.42;;;21.25;;
55827;SDS011;41758;51.992;5.890;2024-01-06T05:34:14;27.55;;;19.85;;
55827;SDS011;41758;51.992;5.890;2024-01-06T05:36:40;34.58;;;22.35;;
55827;SDS011;41758;51.992;5.890;2024-01-06T05:39:05;35.35;;;21.67;;
55827;SDS011;41758;51.992;5.890;2024-01-06T05:41:37;31.90;;;21.65;;
55827;SDS011;41758;51.992;5.890;2024-01-06T05:44:05;31.52;;;21.10;;
55827;SDS011;41758;51.992;5.890;2024-01-06T05:46:33;32.55;;;22.02;;
55827;SDS011;41758;51.992;5.890;2024-01-06T05:48:59;35.47;;;22.70;;
55827;SDS011;41758;51.992;5.890;2024-01-06T05:51:25;32.72;;;21.65;;
55827;SDS011;41758;51.992;5.890;2024-01-06T05:53:50;31.75;;;22.17;;
55827;SDS011;41758;51.992;5.890;2024-01-06T05:56:26;30.77;;;20.35;;
55827;SDS011;41758;51.992;5.890;2024-01-06T05:58:52;38.08;;;22.80;;
55827;SDS011;41758;51.992;5.890;2024-01-06T06:01:19;34.97;;;23.55;;
55827;SDS011;41758;51.992;5.890;2024-01-06T06:03:46;32.10;;;23.15;;
55827;SDS011;41758;51.992;5.890;2024-01-06T06:06:12;38.20;;;24.17;;
55827;SDS011;41758;51.992;5.890;2024-01-06T06:08:39;32.60;;;22.70;;
55827;SDS011;41758;51.992;5.890;2024-01-06T06:11:06;31.38;;;23.70;;
55827;SDS011;41758;51.992;5.890;2024-01-06T06:13:42;33.50;;;22.85;;
55827;SDS011;41758;51.992;5.890;2024-01-06T06:16:11;32.03;;;22.85;;
55827;SDS011;41758;51.992;5.890;2024-01-06T06:18:39;38.30;;;23.40;;
55827;SDS011;41758;51.992;5.890;2024-01-06T06:21:08;32.80;;;21.77;;
55827;SDS011;41758;51.992;5.890;2024-01-06T06:23:34;35.55;;;22.85;;
55827;SDS011;41758;51.992;5.890;2024-01-06T06:26:04;33.10;;;21.75;;
55827;SDS011;41758;51.992;5.890;2024-01-06T06:28:30;30.08;;;21.55;;
55827;SDS011;41758;51.992;5.890;2024-01-06T06:30:56;34.30;;;22.55;;
55827;SDS011;41758;51.992;5.890;2024-01-06T06:33:22;39.78;;;23.95;;
55827;SDS011;41758;51.992;5.890;2024-01-06T06:35:47;29.75;;;20.88;;
55827;SDS011;41758;51.992;5.890;2024-01-06T06:38:13;29.52;;;19.95;;
55827;SDS011;41758;51.992;5.890;2024-01-06T06:40:39;29.25;;;21.27;;
55827;SDS011;41758;51.992;5.890;2024-01-06T06:43:04;32.40;;;21.25;;
55827;SDS011;41758;51.992;5.890;2024-01-06T06:45:30;28.40;;;19.27;;
55827;SDS011;41758;51.992;5.890;2024-01-06T06:47:55;30.08;;;21.25;;
55827;SDS011;41758;51.992;5.890;2024-01-06T06:50:21;28.65;;;21.35;;
55827;SDS011;41758;51.992;5.890;2024-01-06T06:52:47;30.92;;;21.63;;
55827;SDS011;41758;51.992;5.890;2024-01-06T06:55:12;29.15;;;20.88;;
55827;SDS011;41758;51.992;5.890;2024-01-06T06:57:38;31.05;;;20.92;;
55827;SDS011;41758;51.992;5.890;2024-01-06T07:00:04;28.75;;;21.42;;
55827;SDS011;41758;51.992;5.890;2024-01-06T07:02:32;27.55;;;20.08;;
55827;SDS011;41758;51.992;5.890;2024-01-06T07:04:59;28.83;;;21.90;;
55827;SDS011;41758;51.992;5.890;2024-01-06T07:07:24;25.00;;;20.08;;
55827;SDS011;41758;51.992;5.890;2024-01-06T07:09:50;27.30;;;20.05;;
55827;SDS011;41758;51.992;5.890;2024-01-06T07:12:16;26.40;;;20.08;;
55827;SDS011;41758;51.992;5.890;2024-01-06T07:14:41;25.23;;;20.00;;
55827;SDS011;41758;51.992;5.890;2024-01-06T07:17:07;25.48;;;20.58;;
55827;SDS011;41758;51.992;5.890;2024-01-06T07:19:34;30.00;;;22.60;;
55827;SDS011;41758;51.992;5.890;2024-01-06T07:22:01;29.35;;;21.10;;
55827;SDS011;41758;51.992;5.890;2024-01-06T07:24:27;27.48;;;20.23;;
55827;SDS011;41758;51.992;5.890;2024-01-06T07:26:52;27.20;;;19.20;;
55827;SDS011;41758;51.992;5.890;2024-01-06T07:29:18;28.70;;;19.63;;
55827;SDS011;41758;51.992;5.890;2024-01-06T07:31:44;27.23;;;19.15;;
55827;SDS011;41758;51.992;5.890;2024-01-06T07:34:09;28.05;;;19.23;;
55827;SDS011;41758;51.992;5.890;2024-01-06T07:36:35;23.83;;;17.35;;
55827;SDS011;41758;51.992;5.890;2024-01-06T07:39:01;24.90;;;18.67;;
55827;SDS011;41758;51.992;5.890;2024-01-06T07:41:28;26.70;;;19.45;;
55827;SDS011;41758;51.992;5.890;2024-01-06T07:43:55;25.73;;;19.35;;
55827;SDS011;41758;51.992;5.890;2024-01-06T07:46:21;27.38;;;20.38;;
55827;SDS011;41758;51.992;5.890;2024-01-06T07:48:47;28.98;;;21.02;;
55827;SDS011;41758;51.992;5.890;2024-01-06T07:51:12;27.30;;;18.88;;
55827;SDS011;41758;51.992;5.890;2024-01-06T07:53:39;24.83;;;18.45;;
55827;SDS011;41758;51.992;5.890;2024-01-06T07:56:04;24.17;;;17.35;;
55827;SDS011;41758;51.992;5.890;2024-01-06T07:58:30;23.85;;;17.27;;
55827;SDS011;41758;51.992;5.890;2024-01-06T08:00:56;25.33;;;17.40;;
55827;SDS011;41758;51.992;5.890;2024-01-06T08:03:22;25.40;;;18.33;;
55827;SDS011;41758;51.992;5.890;2024-01-06T08:05:48;25.83;;;17.00;;
55827;SDS011;41758;51.992;5.890;2024-01-06T08:08:14;25.70;;;17.85;;
55827;SDS011;41758;51.992;5.890;2024-01-06T08:10:42;23.75;;;17.05;;
55827;SDS011;41758;51.992;5.890;2024-01-06T08:13:08;23.00;;;16.33;;
55827;SDS011;41758;51.992;5.890;2024-01-06T08:15:33;26.73;;;17.75;;
55827;SDS011;41758;51.992;5.890;2024-01-06T08:17:59;27.70;;;18.08;;
55827;SDS011;41758;51.992;5.890;2024-01-06T08:20:25;27.73;;;18.98;;
55827;SDS011;41758;51.992;5.890;2024-01-06T08:22:51;23.95;;;17.25;;
55827;SDS011;41758;51.992;5.890;2024-01-06T08:25:16;24.20;;;17.00;;
55827;SDS011;41758;51.992;5.890;2024-01-06T08:27:45;23.58;;;16.27;;
55827;SDS011;41758;51.992;5.890;2024-01-06T08:30:10;24.25;;;16.63;;
55827;SDS011;41758;51.992;5.890;2024-01-06T08:32:37;25.63;;;16.80;;
55827;SDS011;41758;51.992;5.890;2024-01-06T08:35:03;28.40;;;15.93;;
55827;SDS011;41758;51.992;5.890;2024-01-06T08:37:29;23.90;;;16.35;;
55827;SDS011;41758;51.992;5.890;2024-01-06T08:39:55;24.60;;;15.32;;
55827;SDS011;41758;51.992;5.890;2024-01-06T08:42:21;26.02;;;16.83;;
55827;SDS011;41758;51.992;5.890;2024-01-06T08:44:47;35.78;;;20.23;;
55827;SDS011;41758;51.992;5.890;2024-01-06T08:47:13;27.27;;;17.45;;
55827;SDS011;41758;51.992;5.890;2024-01-06T08:49:38;27.52;;;18.10;;
55827;SDS011;41758;51.992;5.890;2024-01-06T08:52:04;27.90;;;18.10;;
55827;SDS011;41758;51.992;5.890;2024-01-06T08:54:30;28.45;;;18.27;;
55827;SDS011;41758;51.992;5.890;2024-01-06T08:56:56;29.25;;;19.35;;
55827;SDS011;41758;51.992;5.890;2024-01-06T08:59:22;30.17;;;18.40;;
55827;SDS011;41758;51.992;5.890;2024-01-06T09:01:48;30.38;;;19.88;;
55827;SDS011;41758;51.992;5.890;2024-01-06T09:04:13;24.48;;;16.92;;
55827;SDS011;41758;51.992;5.890;2024-01-06T09:06:40;24.65;;;16.48;;
55827;SDS011;41758;51.992;5.890;2024-01-06T09:09:07;26.77;;;16.67;;
55827;SDS011;41758;51.992;5.890;2024-01-06T09:11:33;27.05;;;17.52;;
55827;SDS011;41758;51.992;5.890;2024-01-06T09:13:59;27.45;;;17.38;;
55827;SDS011;41758;51.992;5.890;2024-01-06T09:16:26;29.90;;;18.90;;
55827;SDS011;41758;51.992;5.890;2024-01-06T09:18:51;38.70;;;22.55;;
55827;SDS011;41758;51.992;5.890;2024-01-06T09:21:17;34.35;;;20.67;;
55827;SDS011;41758;51.992;5.890;2024-01-06T09:23:43;35.80;;;22.33;;
55827;SDS011;41758;51.992;5.890;2024-01-06T09:26:09;31.65;;;21.30;;
55827;SDS011;41758;51.992;5.890;2024-01-06T09:28:35;35.08;;;22.73;;
55827;SDS011;41758;51.992;5.890;2024-01-06T09:31:00;32.13;;;21.33;;
55827;SDS011;41758;51.992;5.890;2024-01-06T09:33:26;32.65;;;20.90;;
55827;SDS011;41758;51.992;5.890;2024-01-06T09:35:52;30.58;;;20.67;;
55827;SDS011;41758;51.992;5.890;2024-01-06T09:38:18;29.95;;;20.83;;
55827;SDS011;41758;51.992;5.890;2024-01-06T09:40:44;34.45;;;21.83;;
55827;SDS011;41758;51.992;5.890;2024-01-06T09:43:11;35.35;;;23.30;;
55827;SDS011;41758;51.992;5.890;2024-01-06T09:45:37;32.15;;;22.23;;
55827;SDS011;41758;51.992;5.890;2024-01-06T09:48:13;39.70;;;26.13;;
55827;SDS011;41758;51.992;5.890;2024-01-06T09:50:43;37.20;;;25.13;;
55827;SDS011;41758;51.992;5.890;2024-01-06T09:53:11;36.10;;;23.88;;
55827;SDS011;41758;51.992;5.890;2024-01-06T09:55:38;37.92;;;24.52;;
55827;SDS011;41758;51.992;5.890;2024-01-06T09:58:04;34.75;;;23.17;;
55827;SDS011;41758;51.992;5.890;2024-01-06T10:00:31;36.13;;;23.15;;
55827;SDS011;41758;51.992;5.890;2024-01-06T10:02:57;35.28;;;22.98;;
55827;SDS011;41758;51.992;5.890;2024-01-06T10:05:23;36.17;;;23.92;;
55827;SDS011;41758;51.992;5.890;2024-01-06T10:07:49;38.15;;;26.08;;
55827;SDS011;41758;51.992;5.890;2024-01-06T10:10:14;39.13;;;25.08;;
55827;SDS011;41758;51.992;5.890;2024-01-06T10:12:41;34.63;;;23.30;;
55827;SDS011;41758;51.992;5.890;2024-01-06T10:15:08;31.92;;;22.60;;
55827;SDS011;41758;51.992;5.890;2024-01-06T10:17:38;32.08;;;21.98;;
55827;SDS011;41758;51.992;5.890;2024-01-06T10:20:08;37.47;;;26.10;;
55827;SDS011;41758;51.992;5.890;2024-01-06T10:22:36;34.70;;;24.77;;
55827;SDS011;41758;51.992;5.890;2024-01-06T10:25:05;37.33;;;25.98;;
55827;SDS011;41758;51.992;5.890;2024-01-06T10:27:35;34.40;;;24.08;;
55827;SDS011;41758;51.992;5.890;2024-01-06T10:30:02;32.08;;;22.83;;
55827;SDS011;41758;51.992;5.890;2024-01-06T10:32:34;35.53;;;24.17;;
55827;SDS011;41758;51.992;5.890;2024-01-06T10:35:01;34.30;;;23.77;;
55827;SDS011;41758;51.992;5.890;2024-01-06T10:37:28;28.58;;;21.13;;
55827;SDS011;41758;51.992;5.890;2024-01-06T10:40:04;28.08;;;19.73;;
55827;SDS011;41758;51.992;5.890;2024-01-06T10:42:34;28.35;;;19.67;;
55827;SDS011;41758;51.992;5.890;2024-01-06T10:45:01;30.85;;;21.52;;
55827;SDS011;41758;51.992;5.890;2024-01-06T10:47:28;33.08;;;21.08;;
55827;SDS011;41758;51.992;5.890;2024-01-06T10:49:59;32.65;;;21.13;;
55827;SDS011;41758;51.992;5.890;2024-01-06T10:52:26;36.55;;;24.08;;
55827;SDS011;41758;51.992;5.890;2024-01-06T10:54:53;40.10;;;28.33;;
55827;SDS011;41758;51.992;5.890;2024-01-06T10:57:20;39.42;;;29.38;;
55827;SDS011;41758;51.992;5.890;2024-01-06T10:59:48;38.45;;;27.25;;
55827;SDS011;41758;51.992;5.890;2024-01-06T11:02:15;34.97;;;25.13;;
55827;SDS011;41758;51.992;5.890;2024-01-06T11:04:48;35.92;;;24.23;;
55827;SDS011;41758;51.992;5.890;2024-01-06T11:07:15;36.58;;;24.42;;
55827;SDS011;41758;51.992;5.890;2024-01-06T11:09:45;31.52;;;24.13;;
55827;SDS011;41758;51.992;5.890;2024-01-06T11:12:36;33.88;;;24.33;;
55827;SDS011;41758;51.992;5.890;2024-01-06T11:15:01;32.85;;;24.13;;
55827;SDS011;41758;51.992;5.890;2024-01-06T11:20:26;32.33;;;23.30;;
55827;SDS011;41758;51.992;5.890;2024-01-06T11:22:54;32.05;;;22.90;;
55827;SDS011;41758;51.992;5.890;2024-01-06T11:25:40;37.80;;;24.15;;
55827;SDS011;41758;51.992;5.890;2024-01-06T11:28:07;31.77;;;21.80;;
55827;SDS011;41758;51.992;5.890;2024-01-06T11:30:33;28.55;;;21.05;;
55827;SDS011;41758;51.992;5.890;2024-01-06T11:33:00;31.90;;;23.27;;
55827;SDS011;41758;51.992;5.890;2024-01-06T11:35:29;31.35;;;22.13;;
55827;SDS011;41758;51.992;5.890;2024-01-06T11:37:56;30.75;;;21.73;;
55827;SDS011;41758;51.992;5.890;2024-01-06T11:40:35;29.67;;;22.08;;
55827;SDS011;41758;51.992;5.890;2024-01-06T11:43:05;31.13;;;23.17;;
55827;SDS011;41758;51.992;5.890;2024-01-06T11:45:33;27.67;;;22.10;;
55827;SDS011;41758;51.992;5.890;2024-01-06T11:48:00;34.67;;;25.80;;
55827;SDS011;41758;51.992;5.890;2024-01-06T11:50:34;29.48;;;22.70;;
55827;SDS011;41758;51.992;5.890;2024-01-06T11:53:05;27.65;;;21.55;;
55827;SDS011;41758;51.992;5.890;2024-01-06T11:55:32;29.52;;;22.75;;
55827;SDS011;41758;51.992;5.890;2024-01-06T11:57:59;28.08;;;22.95;;
55827;SDS011;41758;51.992;5.890;2024-01-06T12:00:32;26.92;;;21.65;;
55827;SDS011;41758;51.992;5.890;2024-01-06T12:02:59;31.55;;;21.55;;
55827;SDS011;41758;51.992;5.890;2024-01-06T12:05:26;29.88;;;21.65;;
55827;SDS011;41758;51.992;5.890;2024-01-06T12:07:59;29.00;;;20.05;;
55827;SDS011;41758;51.992;5.890;2024-01-06T12:10:26;29.20;;;23.77;;
55827;SDS011;41758;51.992;5.890;2024-01-06T12:15:24;32.95;;;23.23;;
55827;SDS011;41758;51.992;5.890;2024-01-06T12:17:50;28.73;;;23.13;;
55827;SDS011;41758;51.992;5.890;2024-01-06T12:20:15;29.70;;;21.25;;
55827;SDS011;41758;51.992;5.890;2024-01-06T12:22:41;30.33;;;22.92;;
55827;SDS011;41758;51.992;5.890;2024-01-06T12:25:09;33.35;;;25.08;;
55827;SDS011;41758;51.992;5.890;2024-01-06T12:27:34;32.10;;;24.00;;
55827;SDS011;41758;51.992;5.890;2024-01-06T12:30:00;30.88;;;24.30;;
55827;SDS011;41758;51.992;5.890;2024-01-06T12:32:26;34.72;;;25.38;;
55827;SDS011;41758;51.992;5.890;2024-01-06T12:34:52;31.92;;;24.75;;
55827;SDS011;41758;51.992;5.890;2024-01-06T12:37:17;35.95;;;26.15;;
55827;SDS011;41758;51.992;5.890;2024-01-06T12:39:43;33.03;;;25.05;;
55827;SDS011;41758;51.992;5.890;2024-01-06T12:42:14;29.75;;;23.10;;
55827;SDS011;41758;51.992;5.890;2024-01-06T12:44:41;30.08;;;22.73;;
55827;SDS011;41758;51.992;5.890;2024-01-06T12:47:07;30.98;;;22.25;;
55827;SDS011;41758;51.992;5.890;2024-01-06T12:49:33;35.25;;;25.60;;
55827;SDS011;41758;51.992;5.890;2024-01-06T12:52:00;33.53;;;26.80;;
55827;SDS011;41758;51.992;5.890;2024-01-06T12:54:26;37.88;;;27.15;;
55827;SDS011;41758;51.992;5.890;2024-01-06T12:56:51;32.45;;;26.10;;
55827;SDS011;41758;51.992;5.890;2024-01-06T12:59:17;36.70;;;26.25;;
55827;SDS011;41758;51.992;5.890;2024-01-06T13:01:43;35.50;;;27.48;;
55827;SDS011;41758;51.992;5.890;2024-01-06T13:04:09;36.97;;;27.58;;
55827;SDS011;41758;51.992;5.890;2024-01-06T13:06:35;34.97;;;27.92;;
55827;SDS011;41758;51.992;5.890;2024-01-06T13:09:01;39.97;;;28.73;;
55827;SDS011;41758;51.992;5.890;2024-01-06T13:11:31;41.78;;;29.38;;
55827;SDS011;41758;51.992;5.890;2024-01-06T13:13:57;37.42;;;26.77;;
55827;SDS011;41758;51.992;5.890;2024-01-06T13:16:23;44.00;;;30.05;;
55827;SDS011;41758;51.992;5.890;2024-01-06T13:18:49;34.65;;;26.35;;
55827;SDS011;41758;51.992;5.890;2024-01-06T13:21:14;34.05;;;26.17;;
55827;SDS011;41758;51.992;5.890;2024-01-06T13:23:40;36.83;;;26.90;;
55827;SDS011;41758;51.992;5.890;2024-01-06T13:26:07;40.63;;;29.35;;
55827;SDS011;41758;51.992;5.890;2024-01-06T13:28:33;39.05;;;30.33;;
55827;SDS011;41758;51.992;5.890;2024-01-06T13:30:59;38.20;;;30.15;;
55827;SDS011;41758;51.992;5.890;2024-01-06T13:33:25;37.20;;;28.63;;
55827;SDS011;41758;51.992;5.890;2024-01-06T13:35:51;39.72;;;31.02;;
55827;SDS011;41758;51.992;5.890;2024-01-06T13:38:17;39.42;;;29.08;;
55827;SDS011;41758;51.992;5.890;2024-01-06T13:40:43;41.50;;;29.77;;
55827;SDS011;41758;51.992;5.890;2024-01-06T13:43:08;40.58;;;29.50;;
55827;SDS011;41758;51.992;5.890;2024-01-06T13:45:40;34.35;;;26.90;;
55827;SDS011;41758;51.992;5.890;2024-01-06T13:48:13;37.72;;;27.90;;
55827;SDS011;41758;51.992;5.890;2024-01-06T13:50:39;35.70;;;27.58;;
55827;SDS011;41758;51.992;5.890;2024-01-06T13:53:05;43.58;;;30.15;;
55827;SDS011;41758;51.992;5.890;2024-01-06T13:55:33;33.63;;;26.42;;
55827;SDS011;41758;51.992;5.890;2024-01-06T13:57:59;34.17;;;25.60;;
55827;SDS011;41758;51.992;5.890;2024-01-06T14:00:25;37.63;;;23.98;;
55827;SDS011;41758;51.992;5.890;2024-01-06T14:02:51;33.80;;;25.35;;
55827;SDS011;41758;51.992;5.890;2024-01-06T14:05:17;39.33;;;28.30;;
55827;SDS011;41758;51.992;5.890;2024-01-06T14:07:44;37.70;;;28.90;;
55827;SDS011;41758;51.992;5.890;2024-01-06T14:10:12;48.28;;;33.25;;
55827;SDS011;41758;51.992;5.890;2024-01-06T14:12:39;38.95;;;30.15;;
55827;SDS011;41758;51.992;5.890;2024-01-06T14:15:05;36.55;;;28.02;;
55827;SDS011;41758;51.992;5.890;2024-01-06T14:17:32;47.80;;;31.45;;
55827;SDS011;41758;51.992;5.890;2024-01-06T14:19:58;41.25;;;31.25;;
55827;SDS011;41758;51.992;5.890;2024-01-06T14:22:23;43.20;;;32.20;;